Time;durP1;ratioP1;P1;durP2;ratioP2;P2;SDS_P1;SDS_P2;PMS_P1;PMS_P2;Temp;Humidity;BMP_temperature;BMP_pressure;BME280_temperature;BME280_humidity;BME280_pressure;Samples;Min_cycle;Max_cycle;Signal;HPM_P1;HPM_P2
2022/09/12 00:00:27;;;;;;;4.65;2.88;;;15.90;99.90;;;;;;5071573;28;20418;-71
2022/09/12 00:02:53;;;;;;;2.83;2.13;;;15.90;99.90;;;;;;5071186;28;20029;-71
2022/09/12 00:05:19;;;;;;;2.60;2.40;;;15.80;99.90;;;;;;5071385;28;20059;-71
2022/09/12 00:07:45;;;;;;;3.28;2.13;;;15.80;99.90;;;;;;5071100;28;20024;-71
2022/09/12 00:10:11;;;;;;;6.80;2.90;;;15.80;99.90;;;;;;5071163;28;20060;-71
2022/09/12 00:12:36;;;;;;;3.47;2.60;;;15.80;99.90;;;;;;5071616;28;20134;-70
2022/09/12 00:15:03;;;;;;;3.58;2.63;;;15.80;99.90;;;;;;5070885;28;20025;-71
2022/09/12 00:17:28;;;;;;;4.68;2.35;;;15.80;99.90;;;;;;5071616;28;20102;-70
2022/09/12 00:19:54;;;;;;;4.93;2.40;;;15.80;99.90;;;;;;5070871;28;20044;-71
2022/09/12 00:22:20;;;;;;;2.97;2.50;;;15.80;99.90;;;;;;5053622;28;20054;-71
2022/09/12 00:24:46;;;;;;;3.50;2.35;;;15.80;99.90;;;;;;5070846;28;20027;-72
2022/09/12 00:27:11;;;;;;;4.22;2.58;;;15.80;99.90;;;;;;5070935;28;20499;-71
2022/09/12 00:29:37;;;;;;;4.45;2.55;;;15.80;99.90;;;;;;5070927;28;20024;-70
2022/09/12 00:32:03;;;;;;;4.63;2.55;;;15.80;99.90;;;;;;5082268;28;20143;-70
2022/09/12 00:34:29;;;;;;;6.00;2.40;;;15.80;99.90;;;;;;5091321;28;20058;-70
2022/09/12 00:36:55;;;;;;;3.00;2.42;;;15.80;99.90;;;;;;5090595;28;20025;-70
2022/09/12 00:39:20;;;;;;;3.30;2.60;;;15.80;99.90;;;;;;5091031;28;20032;-70
2022/09/12 00:41:46;;;;;;;3.30;2.38;;;15.80;99.90;;;;;;5091254;28;20150;-72
2022/09/12 00:44:11;;;;;;;2.30;2.10;;;15.80;99.90;;;;;;5090946;28;20314;-71
2022/09/12 00:46:49;;;;;;;4.57;2.72;;;15.90;99.90;;;;;;5091318;28;20465;-71
2022/09/12 00:49:17;;;;;;;3.05;2.50;;;15.90;99.90;;;;;;5091602;28;20091;-71
2022/09/12 00:51:48;;;;;;;4.18;2.33;;;15.90;99.90;;;;;;5091603;28;20111;-71
2022/09/12 00:54:19;;;;;;;3.83;2.35;;;15.90;99.90;;;;;;5091053;28;20042;-71
2022/09/12 00:56:47;;;;;;;4.03;2.75;;;15.80;99.90;;;;;;5091506;28;20410;-71
2022/09/12 00:59:28;;;;;;;3.88;2.65;;;15.80;99.90;;;;;;5091254;28;20024;-71
2022/09/12 01:01:54;;;;;;;5.82;2.67;;;15.80;99.90;;;;;;5090903;28;20031;-71
2022/09/12 01:04:22;;;;;;;3.40;2.58;;;15.80;99.90;;;;;;5094448;28;20484;-71
2022/09/12 01:06:49;;;;;;;4.30;2.50;;;15.70;99.90;;;;;;5094625;28;20024;-72
2022/09/12 01:09:19;;;;;;;4.50;2.85;;;15.80;99.90;;;;;;5094703;28;20024;-71
2022/09/12 01:11:47;;;;;;;3.03;2.63;;;15.80;99.90;;;;;;5076866;28;20039;-71
2022/09/12 01:14:14;;;;;;;4.30;3.25;;;15.70;99.90;;;;;;5094371;28;20424;-71
2022/09/12 01:16:40;;;;;;;4.15;3.55;;;15.70;99.90;;;;;;5094887;28;20035;-71
2022/09/12 01:19:19;;;;;;;4.38;3.58;;;15.70;99.90;;;;;;5094211;28;20023;-71
2022/09/12 01:22:22;;;;;;;3.90;3.45;;;15.70;99.90;;;;;;5094820;28;20104;-71
2022/09/12 01:25:05;;;;;;;5.00;3.22;;;15.70;99.90;;;;;;5094758;28;20048;-71
2022/09/12 01:27:47;;;;;;;5.57;3.53;;;15.70;99.90;;;;;;5094707;28;20092;-71
2022/09/12 01:30:45;;;;;;;3.85;2.95;;;15.60;99.90;;;;;;5094186;28;20032;-72
2022/09/12 01:33:19;;;;;;;4.25;3.58;;;15.60;99.90;;;;;;5059748;28;20047;-71
2022/09/12 01:36:14;;;;;;;6.28;3.67;;;15.60;99.90;;;;;;5094086;28;20020;-71
2022/09/12 01:38:52;;;;;;;5.38;3.63;;;15.60;99.90;;;;;;5094313;28;20095;-71
2022/09/12 01:41:21;;;;;;;4.50;3.65;;;15.50;99.90;;;;;;5094532;28;20162;-71
2022/09/12 01:43:56;;;;;;;5.68;3.70;;;15.50;99.90;;;;;;5094336;28;20206;-71
2022/09/12 01:46:38;;;;;;;4.80;3.63;;;15.50;99.90;;;;;;5094402;28;20028;-71
2022/09/12 01:49:41;;;;;;;6.53;3.53;;;15.50;99.90;;;;;;5093800;28;20037;-70
2022/09/12 01:52:24;;;;;;;5.35;4.07;;;15.50;99.90;;;;;;5079812;28;20069;-70
2022/09/12 01:55:15;;;;;;;5.28;3.63;;;15.50;99.90;;;;;;5094451;28;20024;-70
2022/09/12 01:57:53;;;;;;;3.85;3.45;;;15.60;99.90;;;;;;5094120;28;20024;-70
2022/09/12 02:00:19;;;;;;;3.97;3.58;;;15.60;99.90;;;;;;5094070;28;20043;-70
2022/09/12 02:02:49;;;;;;;4.60;3.58;;;15.60;99.90;;;;;;5094182;28;20032;-70
2022/09/12 02:05:30;;;;;;;5.43;4.43;;;15.60;99.90;;;;;;5093686;28;20073;-70
2022/09/12 02:08:26;;;;;;;4.35;3.67;;;15.60;99.90;;;;;;5093551;28;20019;-70
2022/09/12 02:10:56;;;;;;;5.05;3.88;;;15.60;99.90;;;;;;5093954;28;20035;-70
2022/09/12 02:13:31;;;;;;;4.32;3.65;;;15.60;99.90;;;;;;5093901;28;20055;-71
2022/09/12 02:16:04;;;;;;;5.72;4.15;;;15.60;99.90;;;;;;5093366;28;20358;-71
2022/09/12 02:18:33;;;;;;;6.05;4.10;;;15.60;99.90;;;;;;5093842;28;20027;-70
2022/09/12 02:21:00;;;;;;;5.28;3.97;;;15.60;99.90;;;;;;5092859;28;20082;-71
2022/09/12 02:23:30;;;;;;;4.63;3.80;;;15.60;99.90;;;;;;5093694;28;20036;-71
2022/09/12 02:26:22;;;;;;;4.45;3.97;;;15.60;99.90;;;;;;5093169;28;20020;-73
2022/09/12 02:28:48;;;;;;;4.35;3.80;;;15.60;99.90;;;;;;5086794;28;20050;-70
2022/09/12 02:31:23;;;;;;;5.28;3.70;;;15.60;99.90;;;;;;5092453;28;20483;-70
2022/09/12 02:34:14;;;;;;;6.40;3.80;;;15.60;99.90;;;;;;5093553;28;20032;-70
2022/09/12 02:36:48;;;;;;;6.72;3.80;;;15.60;99.90;;;;;;5093626;28;20107;-72
2022/09/12 02:39:18;;;;;;;5.45;4.10;;;15.60;99.90;;;;;;5093157;28;20043;-72
2022/09/12 02:41:46;;;;;;;4.90;3.83;;;15.50;99.90;;;;;;5093315;28;20028;-70
2022/09/12 02:44:12;;;;;;;5.45;4.50;;;15.50;99.90;;;;;;5091280;28;20024;-71
2022/09/12 02:46:45;;;;;;;7.03;3.70;;;15.50;99.90;;;;;;5092833;28;20024;-70
2022/09/12 02:49:12;;;;;;;6.55;4.57;;;15.40;99.90;;;;;;5092994;28;20031;-71
2022/09/12 02:51:38;;;;;;;6.05;4.13;;;15.40;99.90;;;;;;5093003;28;20032;-70
2022/09/12 02:54:06;;;;;;;7.47;4.38;;;15.40;99.90;;;;;;5092479;28;20024;-73
2022/09/12 02:56:32;;;;;;;6.38;4.47;;;15.40;99.90;;;;;;5092671;28;20119;-71
2022/09/12 02:59:05;;;;;;;7.50;4.38;;;15.30;99.90;;;;;;5092956;28;20318;-71
2022/09/12 03:01:59;;;;;;;6.18;4.80;;;15.30;99.90;;;;;;5092931;28;20090;-71
2022/09/12 03:04:53;;;;;;;7.47;4.78;;;15.30;99.90;;;;;;5092904;28;20138;-71
2022/09/12 03:07:55;;;;;;;5.93;4.75;;;15.30;99.90;;;;;;5092203;28;20047;-71
2022/09/12 03:10:21;;;;;;;9.85;4.72;;;15.20;99.90;;;;;;5092020;28;20081;-71
2022/09/12 03:13:13;;;;;;;6.25;4.82;;;15.20;99.90;;;;;;5092657;28;20032;-71
2022/09/12 03:15:41;;;;;;;7.45;4.30;;;15.20;99.90;;;;;;5092709;28;20184;-71
2022/09/12 03:18:43;;;;;;;7.68;5.43;;;15.20;99.90;;;;;;5092072;28;20030;-72
2022/09/12 03:21:49;;;;;;;8.85;5.18;;;15.10;99.90;;;;;;5068021;28;20470;-71
2022/09/12 03:24:31;;;;;;;7.50;4.55;;;15.10;99.90;;;;;;5029233;28;20045;-70
2022/09/12 03:27:15;;;;;;;8.07;4.90;;;15.10;99.90;;;;;;5086362;28;20040;-70
2022/09/12 03:29:43;;;;;;;10.38;4.80;;;15.10;99.90;;;;;;5092484;28;20028;-71
2022/09/12 03:32:09;;;;;;;7.72;5.20;;;15.10;99.90;;;;;;5091762;28;20059;-71
2022/09/12 03:34:34;;;;;;;7.28;4.90;;;15.10;99.90;;;;;;5089847;28;20391;-71
2022/09/12 03:37:00;;;;;;;6.00;4.90;;;15.00;99.90;;;;;;5092205;28;20030;-71
2022/09/12 03:39:26;;;;;;;7.35;4.90;;;15.00;99.90;;;;;;5092006;28;20024;-71
2022/09/12 03:41:53;;;;;;;6.75;4.63;;;15.00;99.90;;;;;;5092232;28;20060;-70
2022/09/12 03:44:19;;;;;;;6.90;4.85;;;15.00;99.90;;;;;;5091536;28;20032;-70
2022/09/12 03:46:44;;;;;;;6.93;5.15;;;15.00;99.90;;;;;;5092233;28;20350;-70
2022/09/12 03:49:10;;;;;;;8.52;5.28;;;15.00;99.90;;;;;;5091540;28;20089;-70
2022/09/12 03:51:37;;;;;;;6.95;4.65;;;15.00;99.90;;;;;;5092018;28;20404;-71
2022/09/12 03:54:03;;;;;;;7.07;5.35;;;14.90;99.90;;;;;;5091544;28;20073;-72
2022/09/12 03:56:29;;;;;;;7.35;5.00;;;14.90;99.90;;;;;;5092170;28;20106;-71
2022/09/12 03:58:55;;;;;;;5.60;4.53;;;14.90;99.90;;;;;;5089404;28;20437;-72
2022/09/12 04:01:21;;;;;;;7.70;5.35;;;14.90;99.90;;;;;;5089504;28;20042;-72
2022/09/12 04:03:49;;;;;;;8.63;5.05;;;14.90;99.90;;;;;;5091324;28;20119;-70
2022/09/12 04:06:17;;;;;;;8.77;5.00;;;14.90;99.90;;;;;;5089461;28;20028;-70
2022/09/12 04:08:46;;;;;;;7.18;5.25;;;14.90;99.90;;;;;;5091982;28;20039;-70
2022/09/12 04:11:14;;;;;;;9.27;5.07;;;14.80;99.90;;;;;;5089663;28;20032;-71
2022/09/12 04:13:42;;;;;;;7.47;5.00;;;14.80;99.90;;;;;;5089998;28;20036;-70
2022/09/12 04:16:08;;;;;;;9.27;5.13;;;14.80;99.90;;;;;;5091151;28;20070;-71
2022/09/12 04:18:35;;;;;;;6.88;5.50;;;14.80;99.90;;;;;;5091473;28;20035;-71
2022/09/12 04:21:26;;;;;;;10.43;5.72;;;14.80;99.90;;;;;;5091917;28;20134;-72
2022/09/12 04:23:52;;;;;;;6.63;4.95;;;14.80;99.90;;;;;;5088014;28;20236;-72
2022/09/12 04:26:19;;;;;;;9.05;5.93;;;14.80;99.90;;;;;;5091228;28;20103;-72
2022/09/12 04:28:45;;;;;;;7.22;4.90;;;14.80;99.90;;;;;;5089054;28;20048;-72
2022/09/12 04:31:16;;;;;;;7.53;5.32;;;14.80;99.90;;;;;;5090501;28;20403;-72
2022/09/12 04:33:43;;;;;;;6.38;4.95;;;14.80;99.90;;;;;;5072616;28;20028;-72
2022/09/12 04:36:16;;;;;;;6.95;5.32;;;14.80;99.90;;;;;;5089807;28;20105;-72
2022/09/12 04:38:46;;;;;;;7.47;5.00;;;14.80;99.90;;;;;;5091203;28;20032;-72
2022/09/12 04:41:25;;;;;;;7.15;4.50;;;14.80;99.90;;;;;;5093790;28;20115;-72
2022/09/12 04:43:54;;;;;;;8.73;4.90;;;14.80;99.90;;;;;;5094010;28;20032;-72
2022/09/12 04:46:20;;;;;;;7.57;4.78;;;14.90;99.90;;;;;;5089980;28;20490;-72
2022/09/12 04:48:46;;;;;;;7.63;5.22;;;14.90;99.90;;;;;;5086135;28;20028;-72
2022/09/12 04:51:13;;;;;;;6.70;4.93;;;14.90;99.90;;;;;;5074788;28;20437;-72
2022/09/12 04:53:40;;;;;;;5.90;4.22;;;14.90;99.90;;;;;;5093770;28;20421;-72
2022/09/12 04:56:10;;;;;;;7.97;4.57;;;14.90;99.90;;;;;;5091610;28;20035;-72
2022/09/12 04:58:37;;;;;;;7.68;4.63;;;15.00;99.90;;;;;;5093590;28;20393;-72
2022/09/12 05:01:14;;;;;;;7.03;4.22;;;15.00;99.90;;;;;;5093595;28;20115;-72
2022/09/12 05:03:42;;;;;;;6.47;4.68;;;15.00;99.90;;;;;;5086002;28;20060;-72
2022/09/12 05:06:11;;;;;;;7.95;4.68;;;15.00;99.90;;;;;;5073565;28;20039;-72
2022/09/12 05:08:37;;;;;;;7.53;4.90;;;15.10;99.90;;;;;;5078566;28;20107;-72
2022/09/12 05:11:05;;;;;;;7.25;4.15;;;15.10;99.90;;;;;;5113921;28;20107;-72
2022/09/12 05:13:32;;;;;;;7.65;4.20;;;15.10;99.90;;;;;;5113644;28;20062;-72
2022/09/12 05:15:59;;;;;;;6.65;4.40;;;15.20;99.90;;;;;;5114140;28;20036;-72
2022/09/12 05:18:25;;;;;;;7.35;4.45;;;15.20;99.90;;;;;;5113724;28;20047;-71
2022/09/12 05:20:54;;;;;;;7.75;4.35;;;15.30;99.90;;;;;;5104858;28;20039;-72
2022/09/12 05:23:20;;;;;;;6.00;4.35;;;15.30;99.90;;;;;;5092680;28;20480;-72
2022/09/12 05:25:51;;;;;;;6.10;4.25;;;15.30;99.90;;;;;;5093454;28;20061;-72
2022/09/12 05:28:18;;;;;;;6.07;4.15;;;15.40;99.90;;;;;;5093247;28;20024;-71
2022/09/12 05:30:43;;;;;;;6.97;4.22;;;15.40;99.90;;;;;;5052487;28;1159509;-71
2022/09/12 05:33:10;;;;;;;5.47;3.90;;;15.40;99.90;;;;;;5094706;28;20428;-72
2022/09/12 05:35:37;;;;;;;8.95;4.13;;;15.50;99.90;;;;;;5093735;28;20032;-72
2022/09/12 05:38:03;;;;;;;7.60;4.03;;;15.50;99.90;;;;;;5075902;28;20028;-72
2022/09/12 05:40:29;;;;;;;8.15;4.45;;;15.50;99.90;;;;;;5092101;28;20322;-72
2022/09/12 05:42:55;;;;;;;5.60;3.83;;;15.50;99.90;;;;;;5094510;28;20394;-73
2022/09/12 05:45:21;;;;;;;8.85;4.10;;;15.60;99.90;;;;;;5093337;28;20081;-73
2022/09/12 05:47:46;;;;;;;4.53;3.70;;;15.60;99.90;;;;;;5094142;28;20107;-72
2022/09/12 05:50:12;;;;;;;7.53;4.20;;;15.60;99.90;;;;;;5093593;28;20024;-72
2022/09/12 05:52:37;;;;;;;6.78;3.83;;;15.60;99.90;;;;;;5094172;28;20437;-72
2022/09/12 05:55:04;;;;;;;7.80;3.78;;;15.70;99.90;;;;;;5094009;28;20024;-71
2022/09/12 05:57:30;;;;;;;5.78;3.10;;;15.70;99.90;;;;;;5093386;28;20484;-71
2022/09/12 05:59:55;;;;;;;6.10;3.60;;;15.70;99.90;;;;;;5094059;28;20075;-71
2022/09/12 06:02:21;;;;;;;4.68;3.45;;;15.80;99.90;;;;;;5093771;28;20452;-71
2022/09/12 06:04:47;;;;;;;5.68;4.05;;;15.80;99.90;;;;;;5093822;28;20024;-71
2022/09/12 06:07:13;;;;;;;7.35;3.55;;;15.80;99.90;;;;;;5075685;28;20024;-71
2022/09/12 06:09:39;;;;;;;5.38;3.38;;;15.90;99.90;;;;;;5093371;28;20149;-71
2022/09/12 06:12:06;;;;;;;10.68;3.25;;;15.90;99.90;;;;;;5093430;28;20099;-71
2022/09/12 06:14:32;;;;;;;4.38;3.20;;;16.00;99.90;;;;;;5093551;28;20039;-71
2022/09/12 06:16:57;;;;;;;5.45;3.85;;;16.00;99.90;;;;;;5093843;28;20028;-72
2022/09/12 06:19:24;;;;;;;4.50;3.38;;;16.10;99.90;;;;;;5093187;28;20146;-72
2022/09/12 06:21:50;;;;;;;4.60;3.17;;;16.20;99.90;;;;;;5093424;28;20032;-72
2022/09/12 06:24:16;;;;;;;4.95;3.20;;;16.20;99.90;;;;;;5092826;28;20024;-72
2022/09/12 06:26:42;;;;;;;6.05;3.58;;;16.30;99.90;;;;;;5093451;28;20024;-72
2022/09/12 06:29:10;;;;;;;5.72;3.33;;;16.40;99.90;;;;;;5093375;28;20360;-71
2022/09/12 06:31:37;;;;;;;6.05;3.13;;;16.50;99.90;;;;;;5085093;28;20055;-71
2022/09/12 06:34:09;;;;;;;6.68;3.80;;;16.60;99.90;;;;;;5073103;28;20421;-71
2022/09/12 06:36:43;;;;;;;6.28;3.40;;;16.60;99.90;;;;;;5073020;28;20024;-71
2022/09/12 06:39:17;;;;;;;5.28;3.20;;;16.60;99.90;;;;;;5073232;28;20036;-71
2022/09/12 06:41:43;;;;;;;4.22;3.30;;;16.80;99.90;;;;;;5073056;28;20032;-71
2022/09/12 06:44:13;;;;;;;6.45;3.30;;;16.90;99.90;;;;;;5072937;28;20028;-72
2022/09/12 06:46:38;;;;;;;4.28;3.45;;;17.00;99.90;;;;;;5072999;28;20028;-72
2022/09/12 06:49:05;;;;;;;4.53;3.22;;;17.10;99.90;;;;;;5072986;28;20025;-71
2022/09/12 06:51:30;;;;;;;4.60;3.45;;;17.30;99.90;;;;;;5054303;28;20063;-72
2022/09/12 06:53:56;;;;;;;4.65;3.35;;;17.40;99.90;;;;;;5072752;28;20025;-73
2022/09/12 06:56:25;;;;;;;4.40;3.22;;;17.50;99.90;;;;;;5052194;28;20029;-73
2022/09/12 06:58:52;;;;;;;4.38;3.00;;;17.60;99.90;;;;;;5052876;28;20033;-73
2022/09/12 07:01:21;;;;;;;4.05;2.67;;;17.70;99.90;;;;;;5050946;28;20029;-73
2022/09/12 07:03:49;;;;;;;3.85;2.95;;;17.70;99.90;;;;;;5052439;28;20024;-71
2022/09/12 07:06:16;;;;;;;4.53;3.13;;;17.80;99.90;;;;;;5052594;28;20021;-71
2022/09/12 07:08:42;;;;;;;4.85;2.83;;;17.80;99.90;;;;;;5052370;28;20055;-71
2022/09/12 07:11:18;;;;;;;4.18;2.70;;;17.80;99.80;;;;;;5052575;28;20040;-71
2022/09/12 07:13:45;;;;;;;3.50;2.50;;;17.80;99.20;;;;;;5052373;28;20029;-72
2022/09/12 07:16:12;;;;;;;4.68;2.63;;;17.80;99.10;;;;;;5052404;28;20055;-71
2022/09/12 07:18:38;;;;;;;4.63;3.03;;;17.80;98.90;;;;;;5051673;28;20612;-72
2022/09/12 07:21:09;;;;;;;6.63;3.13;;;17.90;98.80;;;;;;5052193;28;20043;-71
2022/09/12 07:23:35;;;;;;;5.10;3.00;;;17.90;98.50;;;;;;5051606;28;20130;-74
2022/09/12 07:26:01;;;;;;;4.13;2.67;;;18.00;98.90;;;;;;5052160;28;20033;-71
2022/09/12 07:28:29;;;;;;;4.30;3.13;;;18.00;98.30;;;;;;5051743;28;20024;-72
2022/09/12 07:30:56;;;;;;;5.57;3.38;;;18.10;98.00;;;;;;5054105;28;20029;-71
2022/09/12 07:33:28;;;;;;;3.88;2.92;;;18.10;98.10;;;;;;5071633;28;20107;-71
2022/09/12 07:35:53;;;;;;;4.95;3.08;;;18.30;97.20;;;;;;5071964;28;20111;-72
2022/09/12 07:38:22;;;;;;;5.35;3.65;;;18.40;96.70;;;;;;5071872;28;20112;-73
2022/09/12 07:40:48;;;;;;;5.15;2.97;;;18.50;95.20;;;;;;5071864;28;20105;-71
2022/09/12 07:43:14;;;;;;;6.18;3.60;;;18.70;95.50;;;;;;5071360;28;20028;-71
2022/09/12 07:45:41;;;;;;;4.80;3.10;;;18.80;94.20;;;;;;5071302;28;20145;-71
2022/09/12 07:48:07;;;;;;;4.47;3.38;;;19.10;95.30;;;;;;5071798;28;20032;-71
2022/09/12 07:50:33;;;;;;;6.47;4.03;;;19.40;94.30;;;;;;5071501;28;20039;-72
2022/09/12 07:52:59;;;;;;;5.63;3.38;;;19.70;93.00;;;;;;5071901;28;20112;-71
2022/09/12 07:55:25;;;;;;;3.58;3.13;;;19.80;93.00;;;;;;5071015;28;20205;-71
2022/09/12 07:57:51;;;;;;;3.75;3.13;;;20.00;91.90;;;;;;5053503;28;20025;-72
2022/09/12 08:00:18;;;;;;;4.68;3.20;;;20.20;90.90;;;;;;5071354;28;20068;-72
2022/09/12 08:02:44;;;;;;;4.45;3.28;;;20.80;90.20;;;;;;5071372;28;20028;-72
2022/09/12 08:05:10;;;;;;;4.45;3.35;;;21.80;85.80;;;;;;5071024;28;20209;-72
2022/09/12 08:07:36;;;;;;;6.10;3.30;;;23.50;77.70;;;;;;5070824;28;20074;-71
2022/09/12 08:10:01;;;;;;;3.63;2.58;;;24.40;71.30;;;;;;5071020;28;20423;-72
2022/09/12 08:12:28;;;;;;;4.28;2.90;;;25.50;68.50;;;;;;5070973;28;20494;-71
2022/09/12 08:14:54;;;;;;;6.25;2.65;;;26.80;64.30;;;;;;5070792;28;20021;-72
2022/09/12 08:17:19;;;;;;;3.17;2.50;;;28.00;57.50;;;;;;5071431;28;20041;-71
2022/09/12 08:19:45;;;;;;;3.42;2.40;;;29.20;55.90;;;;;;5071316;28;20386;-71
2022/09/12 08:22:12;;;;;;;3.28;2.30;;;29.50;51.20;;;;;;5071304;28;20056;-72
2022/09/12 08:24:40;;;;;;;2.47;2.22;;;28.90;50.60;;;;;;5052584;28;20033;-72
2022/09/12 08:27:07;;;;;;;5.65;2.72;;;29.10;50.90;;;;;;5071413;28;20036;-72
2022/09/12 08:29:32;;;;;;;3.75;2.38;;;28.80;50.10;;;;;;5070926;28;20107;-72
2022/09/12 08:31:58;;;;;;;3.33;2.92;;;28.10;50.20;;;;;;5082162;28;20139;-72
2022/09/12 08:34:25;;;;;;;3.55;2.63;;;27.20;52.60;;;;;;5073083;28;20030;-71
2022/09/12 08:36:53;;;;;;;3.10;2.42;;;26.70;54.50;;;;;;5091561;28;20028;-71
2022/09/12 08:39:19;;;;;;;2.97;2.20;;;26.00;55.90;;;;;;5091547;28;20032;-71
2022/09/12 08:41:47;;;;;;;2.67;2.40;;;25.70;57.80;;;;;;5090827;28;20044;-71
2022/09/12 08:44:40;;;;;;;3.15;2.35;;;25.40;56.90;;;;;;5091732;28;20103;-71
2022/09/12 08:47:20;;;;;;;3.47;2.40;;;24.80;58.00;;;;;;5091591;28;20047;-71
2022/09/12 08:50:11;;;;;;;2.55;2.30;;;24.50;59.50;;;;;;5091254;28;20036;-71
2022/09/12 08:52:58;;;;;;;4.32;2.10;;;24.30;61.10;;;;;;5091305;28;20038;-71
2022/09/12 08:55:32;;;;;;;2.75;2.33;;;24.10;60.80;;;;;;5091209;28;20031;-71
2022/09/12 08:58:13;;;;;;;4.55;2.55;;;24.00;62.20;;;;;;5091646;28;20451;-72
2022/09/12 09:00:43;;;;;;;;;;;23.90;60.00;;;;;;5091831;28;20376;-71
2022/09/12 09:03:26;;;;;;;5.00;2.40;;;23.60;61.30;;;;;;5091624;28;20419;-71
2022/09/12 09:06:01;;;;;;;2.97;2.42;;;23.70;63.60;;;;;;5090983;28;20257;-71
2022/09/12 09:08:39;;;;;;;2.58;2.10;;;23.40;62.10;;;;;;5090538;28;20032;-71
2022/09/12 09:11:05;;;;;;;4.32;2.67;;;23.40;63.50;;;;;;5091434;28;20028;-71
2022/09/12 09:16:40;;;;;;;3.40;2.38;;;23.10;63.80;;;;;;5091034;28;20028;-72
2022/09/12 09:19:14;;;;;;;3.47;2.13;;;23.10;63.00;;;;;;5091566;28;20035;-72
2022/09/12 09:21:41;;;;;;;3.25;1.90;;;23.10;62.40;;;;;;5090716;28;20032;-72
2022/09/12 09:24:18;;;;;;;3.10;2.00;;;23.20;63.80;;;;;;5092353;28;20027;-72
2022/09/12 09:27:06;;;;;;;4.07;2.00;;;23.40;63.70;;;;;;5094619;28;20028;-72
2022/09/12 09:29:45;;;;;;;2.38;1.80;;;23.40;64.40;;;;;;5094517;28;20153;-72
2022/09/12 09:32:17;;;;;;;2.85;2.08;;;23.60;62.90;;;;;;5094134;28;20055;-72
2022/09/12 09:34:43;;;;;;;3.50;2.17;;;23.50;62.00;;;;;;5094164;28;20028;-72
2022/09/12 09:37:34;;;;;;;3.65;2.08;;;23.20;62.10;;;;;;5094789;28;20031;-72
2022/09/12 09:40:18;;;;;;;3.28;2.25;;;23.30;62.80;;;;;;5094563;28;20039;-72
2022/09/12 09:42:56;;;;;;;3.20;1.90;;;23.10;62.60;;;;;;5094322;28;20085;-72
2022/09/12 09:45:24;;;;;;;2.75;2.30;;;23.00;62.90;;;;;;5094689;28;20371;-72
2022/09/12 09:48:19;;;;;;;3.05;2.13;;;22.90;63.60;;;;;;5094144;28;20452;-72
2022/09/12 09:50:47;;;;;;;3.00;2.03;;;22.90;62.80;;;;;;5094204;28;20437;-72
2022/09/12 09:53:36;;;;;;;2.60;2.03;;;22.90;62.80;;;;;;5094016;28;20063;-72
2022/09/12 09:56:21;;;;;;;3.28;2.20;;;22.90;63.00;;;;;;5094636;28;20060;-72
2022/09/12 09:58:47;;;;;;;2.35;1.90;;;22.90;63.40;;;;;;5093804;28;20028;-72
2022/09/12 10:01:15;;;;;;;2.72;2.05;;;22.90;62.90;;;;;;5094407;28;20035;-72
2022/09/12 10:03:54;;;;;;;3.65;1.95;;;22.80;63.10;;;;;;5093593;28;20035;-72
2022/09/12 10:06:19;;;;;;;2.30;1.80;;;22.80;63.60;;;;;;5094401;28;20035;-72
2022/09/12 10:08:46;;;;;;;2.28;1.98;;;22.70;64.90;;;;;;5093926;28;20399;-73
2022/09/12 10:11:14;;;;;;;4.28;2.03;;;22.70;62.80;;;;;;5093695;28;20066;-72
2022/09/12 10:13:53;;;;;;;3.38;2.60;;;22.70;63.20;;;;;;5093630;28;20100;-72
2022/09/12 10:16:46;;;;;;;2.78;1.95;;;22.70;64.50;;;;;;5094245;28;20030;-72
2022/09/12 10:19:25;;;;;;;2.92;2.00;;;22.50;63.40;;;;;;5094098;28;20456;-72
2022/09/12 10:21:55;;;;;;;3.80;1.98;;;22.50;63.80;;;;;;5093798;28;20034;-72
2022/09/12 10:24:29;;;;;;;3.58;2.50;;;22.50;63.80;;;;;;5093164;28;20078;-72
2022/09/12 10:27:04;;;;;;;2.45;2.08;;;22.40;64.90;;;;;;5092864;28;20039;-72
2022/09/12 10:29:33;;;;;;;4.57;2.45;;;22.30;64.70;;;;;;5093455;28;20051;-72
2022/09/12 10:32:03;;;;;;;3.33;2.03;;;22.30;65.30;;;;;;5093242;28;20048;-72
2022/09/12 10:34:35;;;;;;;3.57;2.33;;;22.30;65.30;;;;;;5093670;28;20032;-72
2022/09/12 10:37:05;;;;;;;4.07;2.60;;;22.40;65.40;;;;;;5092838;28;20253;-71
2022/09/12 10:39:32;;;;;;;2.33;2.10;;;22.50;64.60;;;;;;5093558;28;20020;-73
2022/09/12 10:41:58;;;;;;;2.65;2.22;;;22.60;62.90;;;;;;5093669;28;20028;-71
2022/09/12 10:44:26;;;;;;;4.50;2.40;;;22.60;64.20;;;;;;5093583;28;20341;-71
2022/09/12 10:46:53;;;;;;;2.60;1.90;;;22.60;63.80;;;;;;5092917;28;20031;-71
2022/09/12 10:49:28;;;;;;;2.55;2.10;;;22.60;64.70;;;;;;5093074;28;20487;-71
2022/09/12 10:51:55;;;;;;;3.08;1.77;;;22.70;65.00;;;;;;5093107;28;20024;-71
2022/09/12 10:54:26;;;;;;;2.72;1.85;;;22.70;64.60;;;;;;5093245;28;20105;-71
2022/09/12 10:57:12;;;;;;;;;;;22.60;62.80;;;;;;5093087;28;20352;-71
2022/09/12 10:59:57;;;;;;;2.13;1.90;;;22.70;63.00;;;;;;5091293;28;20012;-71
2022/09/12 11:02:34;;;;;;;2.53;2.30;;;22.80;63.90;;;;;;5093401;28;20035;-70
2022/09/12 11:05:28;;;;;;;2.95;1.90;;;22.90;63.80;;;;;;5092905;28;20027;-70
2022/09/12 11:08:02;;;;;;;2.45;2.00;;;23.00;64.40;;;;;;5092934;28;20032;-71
2022/09/12 11:11:03;;;;;;;2.85;2.05;;;23.00;62.90;;;;;;5092734;28;20400;-71
2022/09/12 11:13:48;;;;;;;3.72;2.20;;;22.80;62.30;;;;;;5092987;28;20046;-71
2022/09/12 11:16:17;;;;;;;3.47;1.95;;;22.90;61.90;;;;;;5092590;28;20393;-72
2022/09/12 11:19:09;;;;;;;2.60;1.90;;;22.90;62.10;;;;;;5092408;28;20111;-71
2022/09/12 11:21:44;;;;;;;3.50;2.15;;;22.90;62.60;;;;;;5092643;28;20040;-72
2022/09/12 11:24:22;;;;;;;2.70;2.35;;;23.00;63.70;;;;;;5092840;28;20035;-71
2022/09/12 11:26:59;;;;;;;3.40;2.20;;;23.00;63.00;;;;;;5092469;28;20085;-71
2022/09/12 11:29:50;;;;;;;3.30;2.25;;;23.00;62.70;;;;;;5092994;28;20032;-72
2022/09/12 11:32:49;;;;;;;4.82;2.13;;;23.00;63.30;;;;;;5092607;28;20074;-72
2022/09/12 11:35:23;;;;;;;3.05;2.03;;;23.20;62.00;;;;;;5092485;28;20055;-72
2022/09/12 11:38:10;;;;;;;2.63;2.00;;;23.30;61.20;;;;;;5092194;28;20038;-71
2022/09/12 11:40:54;;;;;;;2.85;2.15;;;23.00;61.50;;;;;;5092273;28;20031;-71
2022/09/12 11:43:37;;;;;;;2.40;1.95;;;22.90;61.50;;;;;;5092412;28;20035;-71
2022/09/12 11:46:18;;;;;;;3.10;2.15;;;22.90;61.60;;;;;;5092258;28;20027;-70
2022/09/12 11:48:47;;;;;;;;;;;23.00;60.50;;;;;;5092663;28;20490;-71
2022/09/12 11:51:25;;;;;;;3.17;2.28;;;23.00;62.60;;;;;;5092384;28;19947;-70
2022/09/12 11:54:32;;;;;;;3.95;2.05;;;22.90;61.70;;;;;;5092174;28;20047;-72
2022/09/12 11:57:24;;;;;;;2.20;1.98;;;22.70;61.00;;;;;;5091919;28;20464;-70
2022/09/12 12:00:27;;;;;;;2.75;2.00;;;22.50;61.70;;;;;;5091695;28;20052;-71
2022/09/12 12:03:07;;;;;;;2.97;2.25;;;22.50;62.70;;;;;;5091060;28;20042;-71
2022/09/12 12:05:39;;;;;;;2.90;2.00;;;22.50;63.40;;;;;;5092287;28;20027;-71
2022/09/12 12:08:06;;;;;;;2.85;2.08;;;22.50;62.40;;;;;;5092115;28;20021;-71
2022/09/12 12:10:34;;;;;;;2.20;1.80;;;22.70;63.40;;;;;;5092043;28;20035;-71
2022/09/12 12:13:06;;;;;;;2.45;1.83;;;22.80;61.10;;;;;;5091896;28;20028;-71
2022/09/12 12:15:35;;;;;;;3.13;2.08;;;22.90;61.10;;;;;;5092083;28;20383;-70
2022/09/12 12:18:17;;;;;;;3.40;1.55;;;22.80;61.60;;;;;;5091706;28;20107;-71
2022/09/12 12:20:43;;;;;;;2.80;2.28;;;22.70;61.30;;;;;;5091539;28;20038;-71
2022/09/12 12:23:23;;;;;;;2.28;2.08;;;22.60;61.60;;;;;;5091847;28;20099;-71
2022/09/12 12:25:57;;;;;;;2.35;1.95;;;22.60;61.90;;;;;;5092072;28;20081;-71
2022/09/12 12:28:41;;;;;;;4.35;2.63;;;22.60;61.90;;;;;;5092239;28;20064;-71
2022/09/12 12:31:08;;;;;;;2.47;2.10;;;22.50;61.90;;;;;;5091558;28;20044;-71
2022/09/12 12:33:37;;;;;;;3.08;1.88;;;22.50;61.40;;;;;;5092034;28;20093;-70
2022/09/12 12:36:06;;;;;;;4.03;2.00;;;22.30;62.30;;;;;;5072785;28;20029;-70
2022/09/12 12:38:34;;;;;;;5.40;1.83;;;22.30;62.20;;;;;;5091399;28;20111;-71
2022/09/12 12:41:15;;;;;;;3.67;1.90;;;22.20;61.80;;;;;;5091144;28;20382;-70
2022/09/12 12:43:42;;;;;;;1.92;1.60;;;22.20;61.90;;;;;;5073229;28;20028;-72
2022/09/12 12:46:10;;;;;;;1.85;1.65;;;22.20;61.60;;;;;;5091938;28;20036;-71
2022/09/12 12:48:48;;;;;;;2.95;1.95;;;22.20;62.60;;;;;;5057084;28;20030;-71
2022/09/12 12:51:16;;;;;;;2.30;2.03;;;22.30;62.50;;;;;;5091694;28;20088;-71
2022/09/12 12:53:42;;;;;;;4.95;2.10;;;22.30;62.80;;;;;;5091274;28;20042;-72
2022/09/12 12:56:27;;;;;;;2.15;1.70;;;22.30;63.20;;;;;;5073260;28;20020;-71
2022/09/12 12:59:02;;;;;;;2.25;1.80;;;22.30;63.10;;;;;;5092281;28;20047;-71
2022/09/12 13:01:28;;;;;;;2.33;1.95;;;22.20;62.20;;;;;;5095367;28;20032;-71
2022/09/12 13:04:04;;;;;;;2.78;1.90;;;22.20;62.10;;;;;;5094774;28;20054;-71
2022/09/12 13:06:39;;;;;;;3.85;1.90;;;22.20;62.00;;;;;;5095366;28;20032;-70
2022/09/12 13:09:20;;;;;;;2.47;1.77;;;22.20;60.80;;;;;;5094883;28;20166;-71
2022/09/12 13:11:54;;;;;;;2.83;2.08;;;22.10;60.30;;;;;;5094975;28;20353;-72
2022/09/12 13:14:42;;;;;;;2.55;1.98;;;22.00;60.60;;;;;;5095443;28;20025;-71
2022/09/12 13:17:21;;;;;;;2.17;1.85;;;22.00;62.10;;;;;;5095335;28;20051;-72